sensor_id;sensor_type;location;lat;lon;timestamp;pressure;altitude;pressure_sealevel;temperature;humidity
4199;BME280;2113;50.946;14.610;2023-04-06T00:00:17;97514.19;;;-3.73;94.12
4199;BME280;2113;50.946;14.610;2023-04-06T00:02:45;97518.56;;;-3.78;94.25
4199;BME280;2113;50.946;14.610;2023-04-06T00:05:14;97516.97;;;-3.82;94.51
4199;BME280;2113;50.946;14.610;2023-04-06T00:07:42;97517.94;;;-3.86;94.93
4199;BME280;2113;50.946;14.610;2023-04-06T00:10:10;97514.63;;;-3.90;95.24
4199;BME280;2113;50.946;14.610;2023-04-06T00:12:39;97513.75;;;-3.89;95.12
4199;BME280;2113;50.946;14.610;2023-04-06T00:15:08;97511.25;;;-3.90;95.20
4199;BME280;2113;50.946;14.610;2023-04-06T00:17:38;97514.19;;;-3.73;95.36
4199;BME280;2113;50.946;14.610;2023-04-06T00:20:07;97512.19;;;-3.62;95.20
4199;BME280;2113;50.946;14.610;2023-04-06T00:22:36;97509.66;;;-3.64;94.80
4199;BME280;2113;50.946;14.610;2023-04-06T00:25:05;97509.97;;;-3.74;94.68
4199;BME280;2113;50.946;14.610;2023-04-06T00:27:33;97506.75;;;-3.82;95.00
4199;BME280;2113;50.946;14.610;2023-04-06T00:30:02;97505.97;;;-3.83;94.76
4199;BME280;2113;50.946;14.610;2023-04-06T00:32:31;97510.25;;;-3.85;95.18
4199;BME280;2113;50.946;14.610;2023-04-06T00:35:03;97501.84;;;-3.88;95.23
4199;BME280;2113;50.946;14.610;2023-04-06T00:37:32;97499.38;;;-3.91;95.34
4199;BME280;2113;50.946;14.610;2023-04-06T00:40:00;97506.03;;;-3.86;95.16
4199;BME280;2113;50.946;14.610;2023-04-06T00:42:29;97500.28;;;-3.94;95.06
4199;BME280;2113;50.946;14.610;2023-04-06T00:44:59;97497.00;;;-3.98;95.34
4199;BME280;2113;50.946;14.610;2023-04-06T00:47:28;97504.31;;;-3.85;95.30
4199;BME280;2113;50.946;14.610;2023-04-06T00:49:57;97509.00;;;-3.70;95.04
4199;BME280;2113;50.946;14.610;2023-04-06T00:52:27;97501.63;;;-3.81;94.70
4199;BME280;2113;50.946;14.610;2023-04-06T00:54:55;97503.59;;;-3.90;94.46
4199;BME280;2113;50.946;14.610;2023-04-06T00:57:24;97505.31;;;-3.91;94.46
4199;BME280;2113;50.946;14.610;2023-04-06T00:59:54;97499.31;;;-3.90;94.56
4199;BME280;2113;50.946;14.610;2023-04-06T01:02:23;97496.78;;;-3.90;94.78
4199;BME280;2113;50.946;14.610;2023-04-06T01:04:52;97494.31;;;-3.93;94.39
4199;BME280;2113;50.946;14.610;2023-04-06T01:07:44;97497.31;;;-3.79;94.72
4199;BME280;2113;50.946;14.610;2023-04-06T01:10:23;97496.94;;;-3.65;94.39
4199;BME280;2113;50.946;14.610;2023-04-06T01:12:56;97493.56;;;-3.66;94.10
4199;BME280;2113;50.946;14.610;2023-04-06T01:15:42;97496.28;;;-3.72;94.19
4199;BME280;2113;50.946;14.610;2023-04-06T01:18:15;97499.00;;;-3.78;93.92
4199;BME280;2113;50.946;14.610;2023-04-06T01:20:54;97499.22;;;-3.85;93.76
4199;BME280;2113;50.946;14.610;2023-04-06T01:23:27;97496.06;;;-3.95;93.81
4199;BME280;2113;50.946;14.610;2023-04-06T01:25:55;97498.00;;;-4.05;94.03
4199;BME280;2113;50.946;14.610;2023-04-06T01:28:26;97493.75;;;-4.04;94.46
4199;BME280;2113;50.946;14.610;2023-04-06T01:31:07;97503.06;;;-4.03;94.96
4199;BME280;2113;50.946;14.610;2023-04-06T01:33:43;97500.97;;;-3.87;95.01
4199;BME280;2113;50.946;14.610;2023-04-06T01:36:15;97498.66;;;-3.97;94.81
4199;BME280;2113;50.946;14.610;2023-04-06T01:38:50;97497.13;;;-4.04;94.86
4199;BME280;2113;50.946;14.610;2023-04-06T01:41:25;97494.69;;;-4.08;94.94
4199;BME280;2113;50.946;14.610;2023-04-06T01:43:54;97501.25;;;-3.98;94.54
4199;BME280;2113;50.946;14.610;2023-04-06T01:46:26;97494.00;;;-4.13;94.33
4199;BME280;2113;50.946;14.610;2023-04-06T01:48:54;97500.41;;;-3.99;94.57
4199;BME280;2113;50.946;14.610;2023-04-06T01:51:32;97499.72;;;-4.05;94.20
4199;BME280;2113;50.946;14.610;2023-04-06T01:54:04;97497.56;;;-4.20;94.54
4199;BME280;2113;50.946;14.610;2023-04-06T01:56:50;97489.19;;;-4.24;94.94
4199;BME280;2113;50.946;14.610;2023-04-06T01:59:41;97502.88;;;-4.28;94.72
4199;BME280;2113;50.946;14.610;2023-04-06T02:02:17;97493.16;;;-4.48;94.69
4199;BME280;2113;50.946;14.610;2023-04-06T02:04:55;97499.38;;;-4.59;95.04
4199;BME280;2113;50.946;14.610;2023-04-06T02:07:23;97495.03;;;-4.54;95.20
4199;BME280;2113;50.946;14.610;2023-04-06T02:09:55;97495.78;;;-4.51;94.80
4199;BME280;2113;50.946;14.610;2023-04-06T02:12:32;97495.78;;;-4.51;94.39
4199;BME280;2113;50.946;14.610;2023-04-06T02:15:01;97489.06;;;-4.53;94.23
4199;BME280;2113;50.946;14.610;2023-04-06T02:17:30;97488.03;;;-4.46;94.44
4199;BME280;2113;50.946;14.610;2023-04-06T02:19:59;97486.66;;;-4.59;94.37
4199;BME280;2113;50.946;14.610;2023-04-06T02:22:27;97493.94;;;-4.44;94.05
4199;BME280;2113;50.946;14.610;2023-04-06T02:24:57;97484.94;;;-4.59;93.52
4199;BME280;2113;50.946;14.610;2023-04-06T02:27:25;97490.28;;;-4.70;94.25
4199;BME280;2113;50.946;14.610;2023-04-06T02:29:54;97486.06;;;-4.71;94.84
4199;BME280;2113;50.946;14.610;2023-04-06T02:32:22;97492.63;;;-4.60;95.01
4199;BME280;2113;50.946;14.610;2023-04-06T02:34:51;97485.88;;;-4.63;95.21
4199;BME280;2113;50.946;14.610;2023-04-06T02:37:21;97489.19;;;-4.59;95.05
4199;BME280;2113;50.946;14.610;2023-04-06T02:39:51;97488.56;;;-4.68;94.93
4199;BME280;2113;50.946;14.610;2023-04-06T02:42:21;97491.84;;;-4.64;94.61
4199;BME280;2113;50.946;14.610;2023-04-06T02:44:51;97498.75;;;-4.68;94.72
4199;BME280;2113;50.946;14.610;2023-04-06T02:47:23;97500.19;;;-4.57;95.15
4199;BME280;2113;50.946;14.610;2023-04-06T02:49:52;97491.56;;;-4.52;95.27
4199;BME280;2113;50.946;14.610;2023-04-06T02:52:20;97502.94;;;-4.65;95.14
4199;BME280;2113;50.946;14.610;2023-04-06T02:54:49;97498.88;;;-4.74;94.98
4199;BME280;2113;50.946;14.610;2023-04-06T02:57:25;97493.66;;;-4.68;95.24
4199;BME280;2113;50.946;14.610;2023-04-06T02:59:54;97492.66;;;-4.62;94.91
4199;BME280;2113;50.946;14.610;2023-04-06T03:02:29;97494.53;;;-4.69;94.60
4199;BME280;2113;50.946;14.610;2023-04-06T03:05:06;97491.25;;;-4.75;94.78
4199;BME280;2113;50.946;14.610;2023-04-06T03:07:39;97492.28;;;-4.82;94.76
4199;BME280;2113;50.946;14.610;2023-04-06T03:10:13;97495.63;;;-4.79;94.14
4199;BME280;2113;50.946;14.610;2023-04-06T03:12:44;97499.41;;;-4.96;94.61
4199;BME280;2113;50.946;14.610;2023-04-06T03:15:16;97495.16;;;-4.96;94.53
4199;BME280;2113;50.946;14.610;2023-04-06T03:17:50;97496.44;;;-4.78;93.58
4199;BME280;2113;50.946;14.610;2023-04-06T03:20:41;97498.31;;;-4.86;93.68
4199;BME280;2113;50.946;14.610;2023-04-06T03:23:09;97500.94;;;-4.89;94.47
4199;BME280;2113;50.946;14.610;2023-04-06T03:25:41;97494.03;;;-4.84;94.82
4199;BME280;2113;50.946;14.610;2023-04-06T03:28:15;97496.13;;;-5.02;94.53
4199;BME280;2113;50.946;14.610;2023-04-06T03:30:49;97496.44;;;-5.17;94.74
4199;BME280;2113;50.946;14.610;2023-04-06T03:33:27;97497.84;;;-5.04;94.54
4199;BME280;2113;50.946;14.610;2023-04-06T03:35:56;97501.41;;;-5.09;94.33
4199;BME280;2113;50.946;14.610;2023-04-06T03:38:25;97503.78;;;-5.03;95.14
4199;BME280;2113;50.946;14.610;2023-04-06T03:40:54;97509.91;;;-5.10;94.64
4199;BME280;2113;50.946;14.610;2023-04-06T03:43:27;97496.63;;;-5.24;94.77
4199;BME280;2113;50.946;14.610;2023-04-06T03:45:55;97506.81;;;-5.24;94.95
4199;BME280;2113;50.946;14.610;2023-04-06T03:48:24;97509.38;;;-5.24;94.93
4199;BME280;2113;50.946;14.610;2023-04-06T03:50:52;97504.97;;;-5.18;95.01
4199;BME280;2113;50.946;14.610;2023-04-06T03:53:21;97517.69;;;-5.18;95.02
4199;BME280;2113;50.946;14.610;2023-04-06T03:55:49;97516.66;;;-5.09;94.92
4199;BME280;2113;50.946;14.610;2023-04-06T03:58:17;97516.00;;;-4.79;94.89
4199;BME280;2113;50.946;14.610;2023-04-06T04:00:47;97532.88;;;-4.75;94.65
4199;BME280;2113;50.946;14.610;2023-04-06T04:03:15;97524.81;;;-4.93;94.27
4199;BME280;2113;50.946;14.610;2023-04-06T04:05:43;97522.69;;;-5.13;94.50
4199;BME280;2113;50.946;14.610;2023-04-06T04:08:12;97525.91;;;-5.05;94.44
4199;BME280;2113;50.946;14.610;2023-04-06T04:10:41;97527.94;;;-5.19;94.70
4199;BME280;2113;50.946;14.610;2023-04-06T04:13:09;97534.56;;;-5.12;95.00
4199;BME280;2113;50.946;14.610;2023-04-06T04:15:38;97531.16;;;-5.13;95.16
4199;BME280;2113;50.946;14.610;2023-04-06T04:18:07;97530.38;;;-5.16;95.51
4199;BME280;2113;50.946;14.610;2023-04-06T04:20:36;97529.22;;;-5.02;94.95
4199;BME280;2113;50.946;14.610;2023-04-06T04:23:04;97530.41;;;-5.18;94.51
4199;BME280;2113;50.946;14.610;2023-04-06T04:25:33;97530.56;;;-5.24;94.96
4199;BME280;2113;50.946;14.610;2023-04-06T04:28:02;97538.88;;;-5.16;95.67
4199;BME280;2113;50.946;14.610;2023-04-06T04:30:31;97531.84;;;-5.05;95.89
4199;BME280;2113;50.946;14.610;2023-04-06T04:32:59;97533.63;;;-5.08;95.85
4199;BME280;2113;50.946;14.610;2023-04-06T04:35:29;97537.66;;;-4.99;95.79
4199;BME280;2113;50.946;14.610;2023-04-06T04:37:58;97528.50;;;-5.07;95.60
4199;BME280;2113;50.946;14.610;2023-04-06T04:40:27;97526.81;;;-5.08;94.78
4199;BME280;2113;50.946;14.610;2023-04-06T04:43:03;97536.50;;;-5.23;94.19
4199;BME280;2113;50.946;14.610;2023-04-06T04:45:33;97532.38;;;-5.30;94.47
4199;BME280;2113;50.946;14.610;2023-04-06T04:48:17;97530.47;;;-5.19;94.26
4199;BME280;2113;50.946;14.610;2023-04-06T04:51:03;97528.66;;;-5.14;94.15
4199;BME280;2113;50.946;14.610;2023-04-06T04:53:46;97528.44;;;-5.05;94.67
4199;BME280;2113;50.946;14.610;2023-04-06T04:56:20;97522.91;;;-4.84;94.76
4199;BME280;2113;50.946;14.610;2023-04-06T04:58:53;97526.84;;;-4.71;94.83
4199;BME280;2113;50.946;14.610;2023-04-06T05:01:22;97529.28;;;-4.66;95.10
4199;BME280;2113;50.946;14.610;2023-04-06T05:03:50;97527.34;;;-4.56;95.04
4199;BME280;2113;50.946;14.610;2023-04-06T05:06:21;97533.91;;;-4.46;94.93
4199;BME280;2113;50.946;14.610;2023-04-06T05:08:50;97526.94;;;-4.38;94.89
4199;BME280;2113;50.946;14.610;2023-04-06T05:11:20;97536.97;;;-4.32;94.95
4199;BME280;2113;50.946;14.610;2023-04-06T05:13:56;97531.56;;;-4.20;94.90
4199;BME280;2113;50.946;14.610;2023-04-06T05:16:24;97538.28;;;-4.17;94.68
4199;BME280;2113;50.946;14.610;2023-04-06T05:18:53;97529.75;;;-4.15;94.39
4199;BME280;2113;50.946;14.610;2023-04-06T05:21:37;97535.53;;;-4.10;94.29
4199;BME280;2113;50.946;14.610;2023-04-06T05:27:54;97535.00;;;-3.88;94.35
4199;BME280;2113;50.946;14.610;2023-04-06T05:30:28;97526.13;;;-3.74;94.34
4199;BME280;2113;50.946;14.610;2023-04-06T05:32:58;97530.63;;;-3.52;93.97
4199;BME280;2113;50.946;14.610;2023-04-06T05:35:34;97536.44;;;-3.47;94.05
4199;BME280;2113;50.946;14.610;2023-04-06T05:38:10;97533.97;;;-3.19;93.78
4199;BME280;2113;50.946;14.610;2023-04-06T05:40:39;97535.19;;;-3.03;93.08
4199;BME280;2113;50.946;14.610;2023-04-06T05:43:11;97526.72;;;-3.05;93.06
4199;BME280;2113;50.946;14.610;2023-04-06T05:45:44;97534.53;;;-2.82;92.45
4199;BME280;2113;50.946;14.610;2023-04-06T05:48:12;97532.94;;;-2.86;92.72
4199;BME280;2113;50.946;14.610;2023-04-06T05:50:41;97532.91;;;-2.84;92.88
4199;BME280;2113;50.946;14.610;2023-04-06T05:53:14;97539.78;;;-2.87;92.77
4199;BME280;2113;50.946;14.610;2023-04-06T05:55:50;97541.25;;;-2.78;92.77
4199;BME280;2113;50.946;14.610;2023-04-06T05:58:21;97538.25;;;-2.64;92.95
4199;BME280;2113;50.946;14.610;2023-04-06T06:00:56;97534.94;;;-2.40;93.14
4199;BME280;2113;50.946;14.610;2023-04-06T06:03:26;97535.63;;;-2.35;92.83
4199;BME280;2113;50.946;14.610;2023-04-06T06:06:00;97537.03;;;-2.26;92.98
4199;BME280;2113;50.946;14.610;2023-04-06T06:08:50;97538.28;;;-2.11;92.80
4199;BME280;2113;50.946;14.610;2023-04-06T06:11:19;97535.25;;;-1.98;92.49
4199;BME280;2113;50.946;14.610;2023-04-06T06:13:48;97538.88;;;-1.78;92.46
4199;BME280;2113;50.946;14.610;2023-04-06T06:16:17;97545.16;;;-1.64;91.82
4199;BME280;2113;50.946;14.610;2023-04-06T06:18:47;97546.31;;;-1.48;90.52
4199;BME280;2113;50.946;14.610;2023-04-06T06:21:16;97542.16;;;-1.27;90.77
4199;BME280;2113;50.946;14.610;2023-04-06T06:23:44;97542.44;;;-1.11;89.08
4199;BME280;2113;50.946;14.610;2023-04-06T06:26:20;97535.59;;;-1.11;87.70
4199;BME280;2113;50.946;14.610;2023-04-06T06:28:49;97541.56;;;-1.10;87.99
4199;BME280;2113;50.946;14.610;2023-04-06T06:31:17;97543.94;;;-1.05;87.16
4199;BME280;2113;50.946;14.610;2023-04-06T06:33:47;97546.66;;;-0.87;86.58
4199;BME280;2113;50.946;14.610;2023-04-06T06:36:19;97537.81;;;-0.80;86.66
4199;BME280;2113;50.946;14.610;2023-04-06T06:38:48;97547.59;;;-0.89;85.00
4199;BME280;2113;50.946;14.610;2023-04-06T06:41:20;97546.03;;;-0.93;85.30
4199;BME280;2113;50.946;14.610;2023-04-06T06:43:49;97548.44;;;-0.89;85.28
4199;BME280;2113;50.946;14.610;2023-04-06T06:46:17;97555.56;;;-0.74;84.77
4199;BME280;2113;50.946;14.610;2023-04-06T06:48:47;97544.84;;;-0.61;84.98
4199;BME280;2113;50.946;14.610;2023-04-06T06:51:15;97548.34;;;-0.64;83.77
4199;BME280;2113;50.946;14.610;2023-04-06T06:53:43;97552.22;;;-0.54;83.69
4199;BME280;2113;50.946;14.610;2023-04-06T06:56:12;97543.16;;;-0.41;83.49
4199;BME280;2113;50.946;14.610;2023-04-06T06:58:42;97544.59;;;-0.13;82.97
4199;BME280;2113;50.946;14.610;2023-04-06T07:01:10;97545.78;;;-0.20;81.67
4199;BME280;2113;50.946;14.610;2023-04-06T07:03:39;97550.16;;;-0.02;82.12
4199;BME280;2113;50.946;14.610;2023-04-06T07:06:08;97534.97;;;1.48;77.14
4199;BME280;2113;50.946;14.610;2023-04-06T07:08:39;97525.94;;;6.76;55.48
4199;BME280;2113;50.946;14.610;2023-04-06T07:11:08;97518.25;;;12.13;43.06
4199;BME280;2113;50.946;14.610;2023-04-06T07:13:37;97519.09;;;12.98;38.57
4199;BME280;2113;50.946;14.610;2023-04-06T07:16:08;97510.88;;;16.73;31.57
4199;BME280;2113;50.946;14.610;2023-04-06T07:18:37;97515.59;;;13.44;35.25
4199;BME280;2113;50.946;14.610;2023-04-06T07:21:09;97515.41;;;12.81;34.91
4199;BME280;2113;50.946;14.610;2023-04-06T07:23:39;97525.94;;;12.53;35.92
4199;BME280;2113;50.946;14.610;2023-04-06T07:26:08;97519.50;;;12.94;36.00
4199;BME280;2113;50.946;14.610;2023-04-06T07:28:36;97520.34;;;13.59;32.67
4199;BME280;2113;50.946;14.610;2023-04-06T07:31:05;97527.88;;;10.20;38.27
4199;BME280;2113;50.946;14.610;2023-04-06T07:33:35;97520.97;;;13.52;33.61
4199;BME280;2113;50.946;14.610;2023-04-06T07:36:04;97513.66;;;13.92;31.03
4199;BME280;2113;50.946;14.610;2023-04-06T07:38:33;97518.63;;;10.99;37.06
4199;BME280;2113;50.946;14.610;2023-04-06T07:41:01;97514.13;;;13.32;34.87
4199;BME280;2113;50.946;14.610;2023-04-06T07:43:31;97515.38;;;13.28;33.29
4199;BME280;2113;50.946;14.610;2023-04-06T07:45:59;97509.31;;;15.39;30.45
4199;BME280;2113;50.946;14.610;2023-04-06T07:48:29;97514.97;;;15.52;27.69
4199;BME280;2113;50.946;14.610;2023-04-06T07:51:02;97513.72;;;12.90;31.86
4199;BME280;2113;50.946;14.610;2023-04-06T07:53:35;97518.66;;;14.74;29.76
4199;BME280;2113;50.946;14.610;2023-04-06T07:56:05;97518.75;;;14.29;27.46
4199;BME280;2113;50.946;14.610;2023-04-06T07:58:34;97517.66;;;12.48;32.08
4199;BME280;2113;50.946;14.610;2023-04-06T08:01:02;97511.59;;;15.34;26.68
4199;BME280;2113;50.946;14.610;2023-04-06T08:03:33;97515.47;;;11.95;31.98
4199;BME280;2113;50.946;14.610;2023-04-06T08:06:03;97513.56;;;13.38;31.05
4199;BME280;2113;50.946;14.610;2023-04-06T08:08:32;97501.00;;;12.20;32.40
4199;BME280;2113;50.946;14.610;2023-04-06T08:11:01;97499.84;;;13.72;29.75
4199;BME280;2113;50.946;14.610;2023-04-06T08:13:30;97496.31;;;15.04;28.08
4199;BME280;2113;50.946;14.610;2023-04-06T08:15:59;97489.16;;;17.34;25.22
4199;BME280;2113;50.946;14.610;2023-04-06T08:18:27;97486.88;;;20.37;22.26
4199;BME280;2113;50.946;14.610;2023-04-06T08:20:56;97486.94;;;19.06;21.35
4199;BME280;2113;50.946;14.610;2023-04-06T08:23:26;97490.28;;;15.11;26.39
4199;BME280;2113;50.946;14.610;2023-04-06T08:25:55;97496.41;;;14.07;28.32
4199;BME280;2113;50.946;14.610;2023-04-06T08:28:23;97494.94;;;12.38;30.62
4199;BME280;2113;50.946;14.610;2023-04-06T08:30:51;97493.63;;;13.91;28.99
4199;BME280;2113;50.946;14.610;2023-04-06T08:33:20;97490.44;;;15.44;26.29
4199;BME280;2113;50.946;14.610;2023-04-06T08:35:51;97486.56;;;14.96;26.85
4199;BME280;2113;50.946;14.610;2023-04-06T08:38:19;97484.50;;;16.32;25.86
4199;BME280;2113;50.946;14.610;2023-04-06T08:40:49;97487.28;;;15.40;25.96
4199;BME280;2113;50.946;14.610;2023-04-06T08:43:19;97478.41;;;16.56;25.58
4199;BME280;2113;50.946;14.610;2023-04-06T08:45:50;97472.63;;;16.93;25.46
4199;BME280;2113;50.946;14.610;2023-04-06T08:48:20;97475.31;;;13.81;28.59
4199;BME280;2113;50.946;14.610;2023-04-06T08:50:49;97489.56;;;11.92;30.61
4199;BME280;2113;50.946;14.610;2023-04-06T08:53:18;97477.03;;;14.69;26.89
4199;BME280;2113;50.946;14.610;2023-04-06T08:55:51;97466.16;;;17.43;25.25
4199;BME280;2113;50.946;14.610;2023-04-06T08:58:19;97471.75;;;18.70;22.51
4199;BME280;2113;50.946;14.610;2023-04-06T09:01:07;97476.06;;;15.80;26.09
4199;BME280;2113;50.946;14.610;2023-04-06T09:03:37;97479.69;;;15.79;25.75
4199;BME280;2113;50.946;14.610;2023-04-06T09:06:07;97486.03;;;14.84;26.41
4199;BME280;2113;50.946;14.610;2023-04-06T09:08:38;97479.44;;;13.01;28.37
4199;BME280;2113;50.946;14.610;2023-04-06T09:11:08;97478.03;;;14.07;27.34
4199;BME280;2113;50.946;14.610;2023-04-06T09:13:47;97476.78;;;14.80;25.78
4199;BME280;2113;50.946;14.610;2023-04-06T09:16:17;97471.31;;;16.89;24.39
4199;BME280;2113;50.946;14.610;2023-04-06T09:18:46;97475.34;;;17.16;23.60
4199;BME280;2113;50.946;14.610;2023-04-06T09:21:17;97463.06;;;16.84;23.96
4199;BME280;2113;50.946;14.610;2023-04-06T09:23:58;97458.66;;;18.54;23.47
4199;BME280;2113;50.946;14.610;2023-04-06T09:26:28;97461.91;;;17.73;23.64
4199;BME280;2113;50.946;14.610;2023-04-06T09:28:58;97456.09;;;17.38;24.44
4199;BME280;2113;50.946;14.610;2023-04-06T09:31:29;97460.28;;;16.78;24.21
4199;BME280;2113;50.946;14.610;2023-04-06T09:34:01;97469.16;;;12.34;28.72
4199;BME280;2113;50.946;14.610;2023-04-06T09:36:30;97469.50;;;13.05;29.16
4199;BME280;2113;50.946;14.610;2023-04-06T09:39:01;97466.59;;;13.63;28.12
4199;BME280;2113;50.946;14.610;2023-04-06T09:41:33;97456.84;;;15.46;25.72
4199;BME280;2113;50.946;14.610;2023-04-06T09:44:03;97447.09;;;16.69;25.20
4199;BME280;2113;50.946;14.610;2023-04-06T09:46:35;97453.97;;;15.73;24.66
4199;BME280;2113;50.946;14.610;2023-04-06T09:49:24;97457.91;;;13.98;28.16
4199;BME280;2113;50.946;14.610;2023-04-06T09:51:58;97458.13;;;15.92;25.72
4199;BME280;2113;50.946;14.610;2023-04-06T09:54:29;97461.25;;;14.95;26.75
4199;BME280;2113;50.946;14.610;2023-04-06T09:57:05;97463.13;;;11.26;30.83
4199;BME280;2113;50.946;14.610;2023-04-06T09:59:41;97463.72;;;10.38;32.67
4199;BME280;2113;50.946;14.610;2023-04-06T10:02:24;97460.50;;;10.76;32.26
4199;BME280;2113;50.946;14.610;2023-04-06T10:04:57;97454.41;;;12.23;32.55
4199;BME280;2113;50.946;14.610;2023-04-06T10:07:27;97454.97;;;12.36;29.97
4199;BME280;2113;50.946;14.610;2023-04-06T10:09:55;97448.09;;;13.64;28.33
4199;BME280;2113;50.946;14.610;2023-04-06T10:12:25;97447.34;;;13.72;27.70
4199;BME280;2113;50.946;14.610;2023-04-06T10:14:55;97444.88;;;13.25;29.27
4199;BME280;2113;50.946;14.610;2023-04-06T10:17:25;97451.38;;;14.19;26.49
4199;BME280;2113;50.946;14.610;2023-04-06T10:19:58;97448.34;;;14.76;26.54
4199;BME280;2113;50.946;14.610;2023-04-06T10:22:36;97439.22;;;14.88;26.10
4199;BME280;2113;50.946;14.610;2023-04-06T10:25:08;97448.69;;;12.66;26.78
4199;BME280;2113;50.946;14.610;2023-04-06T10:27:38;97440.63;;;12.77;27.38
4199;BME280;2113;50.946;14.610;2023-04-06T10:30:07;97440.22;;;12.82;32.64
4199;BME280;2113;50.946;14.610;2023-04-06T10:32:36;97433.03;;;14.45;28.25
4199;BME280;2113;50.946;14.610;2023-04-06T10:35:06;97440.16;;;13.29;28.69
4199;BME280;2113;50.946;14.610;2023-04-06T10:37:51;97437.16;;;11.34;29.79
4199;BME280;2113;50.946;14.610;2023-04-06T10:40:22;97437.63;;;11.09;32.96
4199;BME280;2113;50.946;14.610;2023-04-06T10:42:54;97441.94;;;10.28;32.15
4199;BME280;2113;50.946;14.610;2023-04-06T10:45:25;97450.47;;;9.77;33.58
4199;BME280;2113;50.946;14.610;2023-04-06T10:47:55;97443.31;;;8.82;34.52
4199;BME280;2113;50.946;14.610;2023-04-06T10:50:23;97445.34;;;9.01;36.85
4199;BME280;2113;50.946;14.610;2023-04-06T10:52:59;97453.16;;;9.01;37.34
4199;BME280;2113;50.946;14.610;2023-04-06T10:55:29;97449.13;;;8.97;36.87
4199;BME280;2113;50.946;14.610;2023-04-06T10:57:58;97448.63;;;8.01;36.35
4199;BME280;2113;50.946;14.610;2023-04-06T11:00:27;97443.25;;;8.26;38.40
4199;BME280;2113;50.946;14.610;2023-04-06T11:03:13;97443.34;;;8.13;36.27
4199;BME280;2113;50.946;14.610;2023-04-06T11:05:43;97446.53;;;7.47;35.67
4199;BME280;2113;50.946;14.610;2023-04-06T11:08:25;97448.59;;;6.82;35.60
4199;BME280;2113;50.946;14.610;2023-04-06T11:11:04;97450.06;;;6.60;37.01
4199;BME280;2113;50.946;14.610;2023-04-06T11:13:42;97463.66;;;6.76;35.02
4199;BME280;2113;50.946;14.610;2023-04-06T11:16:22;97444.44;;;6.79;33.86
4199;BME280;2113;50.946;14.610;2023-04-06T11:18:53;97449.78;;;6.52;35.11
4199;BME280;2113;50.946;14.610;2023-04-06T11:21:34;97449.00;;;6.75;34.98
4199;BME280;2113;50.946;14.610;2023-04-06T11:24:07;97439.78;;;7.44;34.08
4199;BME280;2113;50.946;14.610;2023-04-06T11:26:40;97443.41;;;7.66;33.61
4199;BME280;2113;50.946;14.610;2023-04-06T11:29:12;97432.03;;;7.56;33.83
4199;BME280;2113;50.946;14.610;2023-04-06T11:31:42;97438.31;;;7.88;32.73
4199;BME280;2113;50.946;14.610;2023-04-06T11:34:15;97439.88;;;7.67;32.63
4199;BME280;2113;50.946;14.610;2023-04-06T11:36:45;97437.88;;;7.70;33.33
4199;BME280;2113;50.946;14.610;2023-04-06T11:39:18;97432.25;;;7.76;32.25
4199;BME280;2113;50.946;14.610;2023-04-06T11:41:48;97426.09;;;8.24;33.28
4199;BME280;2113;50.946;14.610;2023-04-06T11:44:29;97428.16;;;8.65;31.68
4199;BME280;2113;50.946;14.610;2023-04-06T11:47:00;97417.97;;;9.06;31.53
4199;BME280;2113;50.946;14.610;2023-04-06T11:49:30;97416.66;;;10.28;31.38
4199;BME280;2113;50.946;14.610;2023-04-06T11:52:00;97416.19;;;11.05;29.95
4199;BME280;2113;50.946;14.610;2023-04-06T11:54:32;97403.88;;;11.94;29.27
4199;BME280;2113;50.946;14.610;2023-04-06T11:57:02;97408.00;;;10.28;28.43
4199;BME280;2113;50.946;14.610;2023-04-06T11:59:32;97407.13;;;11.19;28.49
4199;BME280;2113;50.946;14.610;2023-04-06T12:02:01;97399.72;;;11.53;30.91
4199;BME280;2113;50.946;14.610;2023-04-06T12:04:31;97398.03;;;11.13;31.55
4199;BME280;2113;50.946;14.610;2023-04-06T12:07:00;97403.88;;;8.31;31.40
4199;BME280;2113;50.946;14.610;2023-04-06T12:09:28;97403.88;;;8.98;32.89
4199;BME280;2113;50.946;14.610;2023-04-06T12:11:57;97394.63;;;8.15;35.31
4199;BME280;2113;50.946;14.610;2023-04-06T12:14:25;97402.47;;;8.82;34.00
4199;BME280;2113;50.946;14.610;2023-04-06T12:16:56;97401.91;;;9.33;34.03
4199;BME280;2113;50.946;14.610;2023-04-06T12:19:24;97399.97;;;9.14;34.38
4199;BME280;2113;50.946;14.610;2023-04-06T12:21:53;97399.69;;;9.17;33.00
4199;BME280;2113;50.946;14.610;2023-04-06T12:24:21;97405.22;;;8.59;32.58
4199;BME280;2113;50.946;14.610;2023-04-06T12:26:50;97394.97;;;8.22;33.77
4199;BME280;2113;50.946;14.610;2023-04-06T12:29:32;97391.97;;;8.39;35.95
4199;BME280;2113;50.946;14.610;2023-04-06T12:32:02;97391.06;;;8.05;35.14
4199;BME280;2113;50.946;14.610;2023-04-06T12:34:31;97398.34;;;7.78;34.51
4199;BME280;2113;50.946;14.610;2023-04-06T12:37:00;97391.91;;;8.06;33.87
4199;BME280;2113;50.946;14.610;2023-04-06T12:39:29;97392.75;;;8.17;33.45
4199;BME280;2113;50.946;14.610;2023-04-06T12:41:57;97386.22;;;8.23;34.64
4199;BME280;2113;50.946;14.610;2023-04-06T12:44:26;97385.50;;;8.21;32.39
4199;BME280;2113;50.946;14.610;2023-04-06T12:46:55;97387.44;;;8.30;32.02
4199;BME280;2113;50.946;14.610;2023-04-06T12:49:25;97386.28;;;8.45;33.01
4199;BME280;2113;50.946;14.610;2023-04-06T12:51:54;97376.84;;;8.44;36.23
4199;BME280;2113;50.946;14.610;2023-04-06T12:54:22;97374.09;;;8.68;33.86
4199;BME280;2113;50.946;14.610;2023-04-06T12:56:53;97375.81;;;7.66;34.05
4199;BME280;2113;50.946;14.610;2023-04-06T12:59:22;97374.06;;;8.24;33.93
4199;BME280;2113;50.946;14.610;2023-04-06T13:01:52;97370.28;;;8.83;33.34
4199;BME280;2113;50.946;14.610;2023-04-06T13:04:20;97368.50;;;9.59;36.42
4199;BME280;2113;50.946;14.610;2023-04-06T13:06:51;97370.91;;;9.51;30.25
4199;BME280;2113;50.946;14.610;2023-04-06T13:09:19;97365.41;;;9.01;36.37
4199;BME280;2113;50.946;14.610;2023-04-06T13:11:47;97361.50;;;9.59;33.75
4199;BME280;2113;50.946;14.610;2023-04-06T13:14:17;97352.66;;;9.72;33.29
4199;BME280;2113;50.946;14.610;2023-04-06T13:16:45;97361.22;;;9.94;32.49
4199;BME280;2113;50.946;14.610;2023-04-06T13:19:14;97353.31;;;10.06;31.15
4199;BME280;2113;50.946;14.610;2023-04-06T13:21:43;97354.53;;;11.02;29.73
4199;BME280;2113;50.946;14.610;2023-04-06T13:24:13;97343.41;;;11.49;28.42
4199;BME280;2113;50.946;14.610;2023-04-06T13:26:43;97353.78;;;10.41;28.21
4199;BME280;2113;50.946;14.610;2023-04-06T13:29:11;97349.56;;;8.82;29.41
4199;BME280;2113;50.946;14.610;2023-04-06T13:31:40;97359.75;;;8.18;30.77
4199;BME280;2113;50.946;14.610;2023-04-06T13:34:08;97345.25;;;8.60;30.73
4199;BME280;2113;50.946;14.610;2023-04-06T13:36:37;97344.13;;;8.63;32.04